sensor_id;sensor_type;location;lat;lon;timestamp;temperature;humidity
9542;DHT22;4809;48.224;8.572;2022-09-30T00:01:43;8.60;93.00
9542;DHT22;4809;48.224;8.572;2022-09-30T00:04:14;8.60;92.90
9542;DHT22;4809;48.224;8.572;2022-09-30T00:06:40;8.50;92.80
9542;DHT22;4809;48.224;8.572;2022-09-30T00:09:06;8.50;92.80
9542;DHT22;4809;48.224;8.572;2022-09-30T00:11:34;8.50;92.80
9542;DHT22;4809;48.224;8.572;2022-09-30T00:14:00;8.50;92.80
9542;DHT22;4809;48.224;8.572;2022-09-30T00:16:29;8.40;92.80
9542;DHT22;4809;48.224;8.572;2022-09-30T00:18:56;8.40;93.00
9542;DHT22;4809;48.224;8.572;2022-09-30T00:21:22;8.40;93.20
9542;DHT22;4809;48.224;8.572;2022-09-30T00:23:49;8.40;93.10
9542;DHT22;4809;48.224;8.572;2022-09-30T00:26:17;8.40;93.00
9542;DHT22;4809;48.224;8.572;2022-09-30T00:28:44;8.30;93.10
9542;DHT22;4809;48.224;8.572;2022-09-30T00:31:13;8.30;93.10
9542;DHT22;4809;48.224;8.572;2022-09-30T00:33:40;8.30;93.10
9542;DHT22;4809;48.224;8.572;2022-09-30T00:36:05;8.40;93.20
9542;DHT22;4809;48.224;8.572;2022-09-30T00:38:31;8.40;93.00
9542;DHT22;4809;48.224;8.572;2022-09-30T00:40:57;8.40;92.50
9542;DHT22;4809;48.224;8.572;2022-09-30T00:43:46;8.30;92.80
9542;DHT22;4809;48.224;8.572;2022-09-30T00:46:35;8.30;93.00
9542;DHT22;4809;48.224;8.572;2022-09-30T00:49:15;8.30;92.90
9542;DHT22;4809;48.224;8.572;2022-09-30T00:51:46;8.20;93.00
9542;DHT22;4809;48.224;8.572;2022-09-30T00:54:17;8.20;93.00
9542;DHT22;4809;48.224;8.572;2022-09-30T00:56:49;8.20;92.90
9542;DHT22;4809;48.224;8.572;2022-09-30T00:59:26;8.10;92.90
9542;DHT22;4809;48.224;8.572;2022-09-30T01:01:54;8.10;93.00
9542;DHT22;4809;48.224;8.572;2022-09-30T01:04:24;8.10;93.20
9542;DHT22;4809;48.224;8.572;2022-09-30T01:06:51;8.10;93.20
9542;DHT22;4809;48.224;8.572;2022-09-30T01:09:18;8.10;93.20
9542;DHT22;4809;48.224;8.572;2022-09-30T01:11:45;8.10;93.10
9542;DHT22;4809;48.224;8.572;2022-09-30T01:14:19;8.20;93.10
9542;DHT22;4809;48.224;8.572;2022-09-30T01:16:52;8.20;93.00
9542;DHT22;4809;48.224;8.572;2022-09-30T01:20:24;8.20;93.00
9542;DHT22;4809;48.224;8.572;2022-09-30T01:33:57;8.30;92.80
9542;DHT22;4809;48.224;8.572;2022-09-30T01:39:28;8.30;93.00
9542;DHT22;4809;48.224;8.572;2022-09-30T01:45:02;8.20;93.10
9542;DHT22;4809;48.224;8.572;2022-09-30T01:47:36;8.30;93.20
9542;DHT22;4809;48.224;8.572;2022-09-30T01:50:13;8.30;93.30
9542;DHT22;4809;48.224;8.572;2022-09-30T01:52:54;8.30;93.20
9542;DHT22;4809;48.224;8.572;2022-09-30T01:55:35;8.30;93.20
9542;DHT22;4809;48.224;8.572;2022-09-30T01:58:11;8.30;93.20
9542;DHT22;4809;48.224;8.572;2022-09-30T02:00:42;8.40;93.20
9542;DHT22;4809;48.224;8.572;2022-09-30T02:03:17;8.40;93.00
9542;DHT22;4809;48.224;8.572;2022-09-30T02:11:00;8.30;93.30
9542;DHT22;4809;48.224;8.572;2022-09-30T02:16:04;8.40;93.20
9542;DHT22;4809;48.224;8.572;2022-09-30T02:18:59;8.30;93.20
9542;DHT22;4809;48.224;8.572;2022-09-30T02:21:32;8.40;93.20
9542;DHT22;4809;48.224;8.572;2022-09-30T02:24:02;8.40;93.20
9542;DHT22;4809;48.224;8.572;2022-09-30T02:26:35;8.40;93.20
9542;DHT22;4809;48.224;8.572;2022-09-30T02:29:09;8.40;93.20
9542;DHT22;4809;48.224;8.572;2022-09-30T02:31:40;8.40;93.10
9542;DHT22;4809;48.224;8.572;2022-09-30T02:34:08;8.40;93.00
9542;DHT22;4809;48.224;8.572;2022-09-30T02:36:54;8.40;93.00
9542;DHT22;4809;48.224;8.572;2022-09-30T02:42:17;8.40;93.10
9542;DHT22;4809;48.224;8.572;2022-09-30T02:44:47;8.40;93.00
9542;DHT22;4809;48.224;8.572;2022-09-30T02:52:40;8.40;93.00
9542;DHT22;4809;48.224;8.572;2022-09-30T02:55:32;8.40;93.00
9542;DHT22;4809;48.224;8.572;2022-09-30T02:58:10;8.40;93.00
9542;DHT22;4809;48.224;8.572;2022-09-30T03:00:38;8.40;93.10
9542;DHT22;4809;48.224;8.572;2022-09-30T03:03:10;8.40;93.10
9542;DHT22;4809;48.224;8.572;2022-09-30T03:05:37;8.40;93.20
9542;DHT22;4809;48.224;8.572;2022-09-30T03:08:03;8.40;93.20
9542;DHT22;4809;48.224;8.572;2022-09-30T03:10:29;8.40;93.20
9542;DHT22;4809;48.224;8.572;2022-09-30T03:15:44;8.40;93.10
9542;DHT22;4809;48.224;8.572;2022-09-30T03:18:22;8.40;93.20
9542;DHT22;4809;48.224;8.572;2022-09-30T03:20:52;8.40;93.20
9542;DHT22;4809;48.224;8.572;2022-09-30T03:24:02;8.40;93.20
9542;DHT22;4809;48.224;8.572;2022-09-30T03:26:44;8.30;92.90
9542;DHT22;4809;48.224;8.572;2022-09-30T03:35:02;8.20;93.10
9542;DHT22;4809;48.224;8.572;2022-09-30T03:45:54;8.30;93.30
9542;DHT22;4809;48.224;8.572;2022-09-30T03:48:22;8.30;93.30
9542;DHT22;4809;48.224;8.572;2022-09-30T03:50:50;8.30;93.40
9542;DHT22;4809;48.224;8.572;2022-09-30T03:53:16;8.20;93.40
9542;DHT22;4809;48.224;8.572;2022-09-30T03:55:48;8.30;93.30
9542;DHT22;4809;48.224;8.572;2022-09-30T03:58:15;8.20;93.30
9542;DHT22;4809;48.224;8.572;2022-09-30T04:00:46;8.20;93.50
9542;DHT22;4809;48.224;8.572;2022-09-30T04:03:13;8.20;93.30
9542;DHT22;4809;48.224;8.572;2022-09-30T04:05:38;8.10;93.50
9542;DHT22;4809;48.224;8.572;2022-09-30T04:08:04;8.10;93.60
9542;DHT22;4809;48.224;8.572;2022-09-30T04:10:29;8.10;93.30
9542;DHT22;4809;48.224;8.572;2022-09-30T04:12:55;8.10;93.60
9542;DHT22;4809;48.224;8.572;2022-09-30T04:15:22;8.10;93.60
9542;DHT22;4809;48.224;8.572;2022-09-30T04:17:47;8.10;93.70
9542;DHT22;4809;48.224;8.572;2022-09-30T04:20:14;8.00;93.60
9542;DHT22;4809;48.224;8.572;2022-09-30T04:22:39;8.00;93.50
9542;DHT22;4809;48.224;8.572;2022-09-30T04:25:06;8.00;93.50
9542;DHT22;4809;48.224;8.572;2022-09-30T04:27:31;7.90;93.70
9542;DHT22;4809;48.224;8.572;2022-09-30T04:29:57;7.90;93.80
9542;DHT22;4809;48.224;8.572;2022-09-30T04:32:23;7.90;93.80
9542;DHT22;4809;48.224;8.572;2022-09-30T04:34:50;7.90;93.80
9542;DHT22;4809;48.224;8.572;2022-09-30T04:37:16;7.90;93.70
9542;DHT22;4809;48.224;8.572;2022-09-30T04:39:41;7.90;93.80
9542;DHT22;4809;48.224;8.572;2022-09-30T04:42:08;7.90;93.80
9542;DHT22;4809;48.224;8.572;2022-09-30T04:44:34;7.90;93.80
9542;DHT22;4809;48.224;8.572;2022-09-30T04:46:59;7.90;93.60
9542;DHT22;4809;48.224;8.572;2022-09-30T04:49:25;7.90;93.60
9542;DHT22;4809;48.224;8.572;2022-09-30T04:51:51;7.90;93.80
9542;DHT22;4809;48.224;8.572;2022-09-30T04:54:16;7.90;93.80
9542;DHT22;4809;48.224;8.572;2022-09-30T04:56:43;7.90;93.80
9542;DHT22;4809;48.224;8.572;2022-09-30T04:59:09;8.00;93.70
9542;DHT22;4809;48.224;8.572;2022-09-30T05:01:35;8.00;93.50
9542;DHT22;4809;48.224;8.572;2022-09-30T05:04:01;8.00;93.40
9542;DHT22;4809;48.224;8.572;2022-09-30T05:06:27;8.00;93.20
9542;DHT22;4809;48.224;8.572;2022-09-30T05:08:52;8.00;93.10
9542;DHT22;4809;48.224;8.572;2022-09-30T05:11:19;8.00;93.20
9542;DHT22;4809;48.224;8.572;2022-09-30T05:13:46;8.00;93.40
9542;DHT22;4809;48.224;8.572;2022-09-30T05:16:13;8.00;93.40
9542;DHT22;4809;48.224;8.572;2022-09-30T05:18:39;8.00;93.30
9542;DHT22;4809;48.224;8.572;2022-09-30T05:21:07;8.00;93.40
9542;DHT22;4809;48.224;8.572;2022-09-30T05:23:33;7.90;93.40
9542;DHT22;4809;48.224;8.572;2022-09-30T05:25:59;7.90;93.80
9542;DHT22;4809;48.224;8.572;2022-09-30T05:28:26;7.90;93.50
9542;DHT22;4809;48.224;8.572;2022-09-30T05:31:01;7.90;93.70
9542;DHT22;4809;48.224;8.572;2022-09-30T05:33:28;7.80;93.80
9542;DHT22;4809;48.224;8.572;2022-09-30T05:35:54;7.80;93.70
9542;DHT22;4809;48.224;8.572;2022-09-30T05:38:20;7.80;93.80
9542;DHT22;4809;48.224;8.572;2022-09-30T05:40:46;7.80;93.60
9542;DHT22;4809;48.224;8.572;2022-09-30T05:43:11;7.80;93.70
9542;DHT22;4809;48.224;8.572;2022-09-30T05:45:37;7.80;93.70
9542;DHT22;4809;48.224;8.572;2022-09-30T05:48:03;7.70;93.80
9542;DHT22;4809;48.224;8.572;2022-09-30T05:50:29;7.70;93.70
9542;DHT22;4809;48.224;8.572;2022-09-30T05:52:55;7.80;93.70
9542;DHT22;4809;48.224;8.572;2022-09-30T05:55:22;7.80;93.70
9542;DHT22;4809;48.224;8.572;2022-09-30T05:57:49;7.80;93.70
9542;DHT22;4809;48.224;8.572;2022-09-30T06:00:16;7.70;93.20
9542;DHT22;4809;48.224;8.572;2022-09-30T06:02:41;7.70;93.60
9542;DHT22;4809;48.224;8.572;2022-09-30T06:05:09;7.70;93.70
9542;DHT22;4809;48.224;8.572;2022-09-30T06:07:36;7.80;93.60
9542;DHT22;4809;48.224;8.572;2022-09-30T06:10:04;7.90;93.60
9542;DHT22;4809;48.224;8.572;2022-09-30T06:12:31;7.90;93.50
9542;DHT22;4809;48.224;8.572;2022-09-30T06:14:56;8.00;93.50
9542;DHT22;4809;48.224;8.572;2022-09-30T06:17:22;8.00;93.40
9542;DHT22;4809;48.224;8.572;2022-09-30T06:19:48;8.00;93.20
9542;DHT22;4809;48.224;8.572;2022-09-30T06:22:15;8.00;93.00
9542;DHT22;4809;48.224;8.572;2022-09-30T06:24:41;8.00;92.80
9542;DHT22;4809;48.224;8.572;2022-09-30T06:27:07;7.90;92.90
9542;DHT22;4809;48.224;8.572;2022-09-30T06:29:33;8.00;93.00
9542;DHT22;4809;48.224;8.572;2022-09-30T06:31:58;8.00;92.80
9542;DHT22;4809;48.224;8.572;2022-09-30T06:34:24;7.90;93.00
9542;DHT22;4809;48.224;8.572;2022-09-30T06:36:50;8.00;92.90
9542;DHT22;4809;48.224;8.572;2022-09-30T06:39:15;8.00;92.90
9542;DHT22;4809;48.224;8.572;2022-09-30T06:41:41;8.00;92.60
9542;DHT22;4809;48.224;8.572;2022-09-30T06:44:09;8.10;92.50
9542;DHT22;4809;48.224;8.572;2022-09-30T06:46:35;8.10;92.60
9542;DHT22;4809;48.224;8.572;2022-09-30T06:49:00;8.10;92.60
9542;DHT22;4809;48.224;8.572;2022-09-30T06:51:29;8.20;92.50
9542;DHT22;4809;48.224;8.572;2022-09-30T06:53:58;8.30;92.60
9542;DHT22;4809;48.224;8.572;2022-09-30T06:56:24;8.30;92.60
9542;DHT22;4809;48.224;8.572;2022-09-30T06:58:49;8.30;92.50
9542;DHT22;4809;48.224;8.572;2022-09-30T07:01:15;8.30;91.90
9542;DHT22;4809;48.224;8.572;2022-09-30T07:03:44;8.20;92.00
9542;DHT22;4809;48.224;8.572;2022-09-30T07:06:11;8.30;92.50
9542;DHT22;4809;48.224;8.572;2022-09-30T07:08:37;8.40;92.40
9542;DHT22;4809;48.224;8.572;2022-09-30T07:11:11;8.50;92.20
9542;DHT22;4809;48.224;8.572;2022-09-30T07:13:46;8.50;92.40
9542;DHT22;4809;48.224;8.572;2022-09-30T07:16:12;8.60;92.40
9542;DHT22;4809;48.224;8.572;2022-09-30T07:18:39;8.60;92.10
9542;DHT22;4809;48.224;8.572;2022-09-30T07:21:07;8.60;92.30
9542;DHT22;4809;48.224;8.572;2022-09-30T07:23:33;8.70;91.80
9542;DHT22;4809;48.224;8.572;2022-09-30T07:26:00;8.70;91.90
9542;DHT22;4809;48.224;8.572;2022-09-30T07:28:31;8.60;91.50
9542;DHT22;4809;48.224;8.572;2022-09-30T07:30:58;8.60;91.80
9542;DHT22;4809;48.224;8.572;2022-09-30T07:33:28;8.70;92.00
9542;DHT22;4809;48.224;8.572;2022-09-30T07:35:57;8.80;91.80
9542;DHT22;4809;48.224;8.572;2022-09-30T07:38:26;8.70;91.60
9542;DHT22;4809;48.224;8.572;2022-09-30T07:40:57;8.80;91.70
9542;DHT22;4809;48.224;8.572;2022-09-30T07:43:28;8.80;92.00
9542;DHT22;4809;48.224;8.572;2022-09-30T07:46:08;8.80;91.90
9542;DHT22;4809;48.224;8.572;2022-09-30T07:48:35;8.90;92.00
9542;DHT22;4809;48.224;8.572;2022-09-30T07:51:18;9.00;91.90
9542;DHT22;4809;48.224;8.572;2022-09-30T07:53:48;9.10;91.60
9542;DHT22;4809;48.224;8.572;2022-09-30T07:56:15;9.30;91.50
9542;DHT22;4809;48.224;8.572;2022-09-30T07:58:41;9.30;91.20
9542;DHT22;4809;48.224;8.572;2022-09-30T08:01:07;9.40;91.20
9542;DHT22;4809;48.224;8.572;2022-09-30T08:03:38;9.40;91.10
9542;DHT22;4809;48.224;8.572;2022-09-30T08:06:09;9.40;91.00
9542;DHT22;4809;48.224;8.572;2022-09-30T08:08:36;9.50;90.80
9542;DHT22;4809;48.224;8.572;2022-09-30T08:11:03;9.60;90.90
9542;DHT22;4809;48.224;8.572;2022-09-30T08:13:29;9.70;90.40
9542;DHT22;4809;48.224;8.572;2022-09-30T08:15:55;9.70;90.40
9542;DHT22;4809;48.224;8.572;2022-09-30T08:18:21;9.80;90.10
9542;DHT22;4809;48.224;8.572;2022-09-30T08:20:46;9.80;90.00
9542;DHT22;4809;48.224;8.572;2022-09-30T08:23:12;9.90;90.20
9542;DHT22;4809;48.224;8.572;2022-09-30T08:25:37;10.00;89.10
9542;DHT22;4809;48.224;8.572;2022-09-30T08:28:03;10.20;88.00
9542;DHT22;4809;48.224;8.572;2022-09-30T08:30:29;10.50;88.10
9542;DHT22;4809;48.224;8.572;2022-09-30T08:32:55;10.90;87.50
9542;DHT22;4809;48.224;8.572;2022-09-30T08:35:20;11.00;86.80
9542;DHT22;4809;48.224;8.572;2022-09-30T08:37:46;11.00;85.90
9542;DHT22;4809;48.224;8.572;2022-09-30T08:40:22;10.90;86.00
9542;DHT22;4809;48.224;8.572;2022-09-30T08:43:08;10.90;86.20
9542;DHT22;4809;48.224;8.572;2022-09-30T08:48:25;10.90;86.10
9542;DHT22;4809;48.224;8.572;2022-09-30T08:51:09;11.00;86.40
9542;DHT22;4809;48.224;8.572;2022-09-30T08:53:42;11.10;85.40
9542;DHT22;4809;48.224;8.572;2022-09-30T08:56:19;11.20;85.50
9542;DHT22;4809;48.224;8.572;2022-09-30T08:58:47;11.30;84.20
9542;DHT22;4809;48.224;8.572;2022-09-30T09:01:28;11.40;84.10
9542;DHT22;4809;48.224;8.572;2022-09-30T09:03:56;11.70;83.80
9542;DHT22;4809;48.224;8.572;2022-09-30T09:09:14;12.20;82.30
9542;DHT22;4809;48.224;8.572;2022-09-30T09:12:08;12.40;80.40
9542;DHT22;4809;48.224;8.572;2022-09-30T09:20:22;12.80;78.10
9542;DHT22;4809;48.224;8.572;2022-09-30T09:22:24;12.70;78.70
9542;DHT22;4809;48.224;8.572;2022-09-30T09:24:51;12.70;78.90
9542;DHT22;4809;48.224;8.572;2022-09-30T09:27:29;13.00;79.10
9542;DHT22;4809;48.224;8.572;2022-09-30T09:30:09;13.20;77.30
9542;DHT22;4809;48.224;8.572;2022-09-30T09:32:36;13.30;78.90
9542;DHT22;4809;48.224;8.572;2022-09-30T09:35:16;13.40;78.30
9542;DHT22;4809;48.224;8.572;2022-09-30T09:38:02;13.50;74.50
9542;DHT22;4809;48.224;8.572;2022-09-30T09:49:20;13.70;75.00
9542;DHT22;4809;48.224;8.572;2022-09-30T09:57:14;14.40;72.50
9542;DHT22;4809;48.224;8.572;2022-09-30T10:02:29;14.10;71.90
9542;DHT22;4809;48.224;8.572;2022-09-30T10:04:56;14.10;70.70
9542;DHT22;4809;48.224;8.572;2022-09-30T10:07:30;14.30;69.30
9542;DHT22;4809;48.224;8.572;2022-09-30T10:10:16;14.60;69.40
9542;DHT22;4809;48.224;8.572;2022-09-30T10:12:43;15.00;65.70
9542;DHT22;4809;48.224;8.572;2022-09-30T10:15:21;15.10;65.50
9542;DHT22;4809;48.224;8.572;2022-09-30T10:17:57;15.00;65.60
9542;DHT22;4809;48.224;8.572;2022-09-30T10:20:28;14.90;69.10
9542;DHT22;4809;48.224;8.572;2022-09-30T10:23:30;15.30;67.40
9542;DHT22;4809;48.224;8.572;2022-09-30T10:26:15;15.60;66.50
9542;DHT22;4809;48.224;8.572;2022-09-30T10:28:48;16.00;67.90
9542;DHT22;4809;48.224;8.572;2022-09-30T10:33:46;16.80;65.00
9542;DHT22;4809;48.224;8.572;2022-09-30T10:38:55;17.20;61.10
9542;DHT22;4809;48.224;8.572;2022-09-30T10:41:30;17.00;60.40
9542;DHT22;4809;48.224;8.572;2022-09-30T10:43:59;17.50;62.30
9542;DHT22;4809;48.224;8.572;2022-09-30T10:46:34;17.90;61.10
9542;DHT22;4809;48.224;8.572;2022-09-30T10:49:19;17.90;58.80
9542;DHT22;4809;48.224;8.572;2022-09-30T10:51:51;17.40;59.80
9542;DHT22;4809;48.224;8.572;2022-09-30T10:57:05;16.80;60.40
9542;DHT22;4809;48.224;8.572;2022-09-30T10:59:39;17.60;60.10
9542;DHT22;4809;48.224;8.572;2022-09-30T11:08:12;18.50;56.40
9542;DHT22;4809;48.224;8.572;2022-09-30T11:10:55;18.60;55.00
9542;DHT22;4809;48.224;8.572;2022-09-30T11:16:23;18.80;55.10
9542;DHT22;4809;48.224;8.572;2022-09-30T11:21:52;19.10;52.40
9542;DHT22;4809;48.224;8.572;2022-09-30T11:24:36;19.40;54.00
9542;DHT22;4809;48.224;8.572;2022-09-30T11:32:53;20.40;51.10
9542;DHT22;4809;48.224;8.572;2022-09-30T11:39:22;19.70;49.80
9542;DHT22;4809;48.224;8.572;2022-09-30T11:41:33;20.30;53.80
9542;DHT22;4809;48.224;8.572;2022-09-30T11:47:01;20.50;49.00
9542;DHT22;4809;48.224;8.572;2022-09-30T11:59:51;20.10;49.10
9542;DHT22;4809;48.224;8.572;2022-09-30T12:02:28;20.00;47.70
9542;DHT22;4809;48.224;8.572;2022-09-30T12:04:59;19.30;48.50
9542;DHT22;4809;48.224;8.572;2022-09-30T12:07:57;18.80;49.50
9542;DHT22;4809;48.224;8.572;2022-09-30T12:10:37;18.40;51.00
9542;DHT22;4809;48.224;8.572;2022-09-30T12:13:10;18.10;52.10
9542;DHT22;4809;48.224;8.572;2022-09-30T12:15:41;17.80;50.10
9542;DHT22;4809;48.224;8.572;2022-09-30T12:18:13;17.60;51.50
9542;DHT22;4809;48.224;8.572;2022-09-30T12:20:53;17.60;52.60
9542;DHT22;4809;48.224;8.572;2022-09-30T12:23:35;18.00;53.30
9542;DHT22;4809;48.224;8.572;2022-09-30T12:26:04;18.50;51.00
9542;DHT22;4809;48.224;8.572;2022-09-30T12:28:36;18.80;50.50
9542;DHT22;4809;48.224;8.572;2022-09-30T12:34:34;18.90;51.20
9542;DHT22;4809;48.224;8.572;2022-09-30T12:43:28;20.00;46.80
9542;DHT22;4809;48.224;8.572;2022-09-30T12:49:06;19.50;49.70
9542;DHT22;4809;48.224;8.572;2022-09-30T12:51:35;19.20;49.40
9542;DHT22;4809;48.224;8.572;2022-09-30T12:56:41;19.20;49.40
9542;DHT22;4809;48.224;8.572;2022-09-30T12:59:07;19.50;50.00
9542;DHT22;4809;48.224;8.572;2022-09-30T13:01:38;20.20;47.70
9542;DHT22;4809;48.224;8.572;2022-09-30T13:14:34;21.00;45.20
9542;DHT22;4809;48.224;8.572;2022-09-30T13:19:35;20.00;44.10
9542;DHT22;4809;48.224;8.572;2022-09-30T13:27:39;18.90;46.90
9542;DHT22;4809;48.224;8.572;2022-09-30T13:41:32;18.30;47.70
9542;DHT22;4809;48.224;8.572;2022-09-30T13:44:18;18.60;49.90
9542;DHT22;4809;48.224;8.572;2022-09-30T13:46:52;19.60;48.90
9542;DHT22;4809;48.224;8.572;2022-09-30T13:49:23;20.10;47.70
9542;DHT22;4809;48.224;8.572;2022-09-30T13:51:53;19.80;45.40
9542;DHT22;4809;48.224;8.572;2022-09-30T13:54:34;18.90;45.00
9542;DHT22;4809;48.224;8.572;2022-09-30T13:57:03;18.30;49.10
9542;DHT22;4809;48.224;8.572;2022-09-30T14:02:54;17.60;53.30
9542;DHT22;4809;48.224;8.572;2022-09-30T14:11:25;16.50;55.60
9542;DHT22;4809;48.224;8.572;2022-09-30T14:17:30;16.10;56.80
9542;DHT22;4809;48.224;8.572;2022-09-30T14:22:42;15.80;56.90
9542;DHT22;4809;48.224;8.572;2022-09-30T14:25:17;15.70;58.30
9542;DHT22;4809;48.224;8.572;2022-09-30T14:28:01;15.60;58.00
9542;DHT22;4809;48.224;8.572;2022-09-30T14:30:39;15.50;56.30
9542;DHT22;4809;48.224;8.572;2022-09-30T14:33:23;15.40;57.40
9542;DHT22;4809;48.224;8.572;2022-09-30T14:35:52;15.30;57.20
9542;DHT22;4809;48.224;8.572;2022-09-30T14:38:22;15.30;58.00
9542;DHT22;4809;48.224;8.572;2022-09-30T14:40:52;15.40;57.70
9542;DHT22;4809;48.224;8.572;2022-09-30T14:43:31;15.30;57.50
9542;DHT22;4809;48.224;8.572;2022-09-30T14:48:49;15.20;56.60
9542;DHT22;4809;48.224;8.572;2022-09-30T14:51:17;15.20;55.90
9542;DHT22;4809;48.224;8.572;2022-09-30T14:53:53;15.20;55.30
9542;DHT22;4809;48.224;8.572;2022-09-30T14:58:47;15.20;54.80
9542;DHT22;4809;48.224;8.572;2022-09-30T15:01:16;15.10;55.30
9542;DHT22;4809;48.224;8.572;2022-09-30T15:03:44;15.20;55.90
9542;DHT22;4809;48.224;8.572;2022-09-30T15:06:21;15.30;56.80
9542;DHT22;4809;48.224;8.572;2022-09-30T15:08:48;15.40;55.90
9542;DHT22;4809;48.224;8.572;2022-09-30T15:11:23;15.40;55.40
9542;DHT22;4809;48.224;8.572;2022-09-30T15:13:57;15.50;55.30
9542;DHT22;4809;48.224;8.572;2022-09-30T15:16:28;15.40;54.50
9542;DHT22;4809;48.224;8.572;2022-09-30T15:18:54;15.30;55.30
9542;DHT22;4809;48.224;8.572;2022-09-30T15:21:21;15.40;54.50
9542;DHT22;4809;48.224;8.572;2022-09-30T15:23:50;15.50;53.70
9542;DHT22;4809;48.224;8.572;2022-09-30T15:26:18;15.70;54.00
9542;DHT22;4809;48.224;8.572;2022-09-30T15:28:45;15.90;53.20
9542;DHT22;4809;48.224;8.572;2022-09-30T15:31:25;16.10;54.90
9542;DHT22;4809;48.224;8.572;2022-09-30T15:34:15;16.10;53.90
9542;DHT22;4809;48.224;8.572;2022-09-30T15:36:44;16.00;53.50
9542;DHT22;4809;48.224;8.572;2022-09-30T15:39:21;16.00;53.90
9542;DHT22;4809;48.224;8.572;2022-09-30T15:41:48;16.10;55.20
9542;DHT22;4809;48.224;8.572;2022-09-30T15:44:35;16.10;55.90
9542;DHT22;4809;48.224;8.572;2022-09-30T15:47:08;16.20;56.90
9542;DHT22;4809;48.224;8.572;2022-09-30T15:52:38;15.80;58.80
9542;DHT22;4809;48.224;8.572;2022-09-30T15:55:56;15.50;59.20
9542;DHT22;4809;48.224;8.572;2022-09-30T16:03:34;15.00;62.50
9542;DHT22;4809;48.224;8.572;2022-09-30T16:06:09;14.90;64.10
9542;DHT22;4809;48.224;8.572;2022-09-30T16:08:47;14.70;65.60
9542;DHT22;4809;48.224;8.572;2022-09-30T16:11:24;14.60;65.90
9542;DHT22;4809;48.224;8.572;2022-09-30T16:13:50;14.50;65.30
9542;DHT22;4809;48.224;8.572;2022-09-30T16:16:29;14.30;66.00
9542;DHT22;4809;48.224;8.572;2022-09-30T16:18:57;14.20;66.30
9542;DHT22;4809;48.224;8.572;2022-09-30T16:21:37;14.10;65.50
9542;DHT22;4809;48.224;8.572;2022-09-30T16:26:56;13.90;67.30
9542;DHT22;4809;48.224;8.572;2022-09-30T16:29:23;13.80;68.40
9542;DHT22;4809;48.224;8.572;2022-09-30T16:31:54;13.70;68.70
9542;DHT22;4809;48.224;8.572;2022-09-30T16:34:26;13.40;68.40
9542;DHT22;4809;48.224;8.572;2022-09-30T16:36:54;13.30;69.60
9542;DHT22;4809;48.224;8.572;2022-09-30T16:39:20;13.20;70.40
9542;DHT22;4809;48.224;8.572;2022-09-30T16:41:46;13.10;70.80
9542;DHT22;4809;48.224;8.572;2022-09-30T16:44:12;13.10;71.30
9542;DHT22;4809;48.224;8.572;2022-09-30T16:46:38;13.00;71.70
9542;DHT22;4809;48.224;8.572;2022-09-30T16:49:19;12.90;71.70
9542;DHT22;4809;48.224;8.572;2022-09-30T16:51:45;12.80;72.10
9542;DHT22;4809;48.224;8.572;2022-09-30T16:54:11;12.70;72.20
9542;DHT22;4809;48.224;8.572;2022-09-30T16:56:37;12.60;72.80
9542;DHT22;4809;48.224;8.572;2022-09-30T16:59:05;12.50;73.00
9542;DHT22;4809;48.224;8.572;2022-09-30T17:01:31;12.40;73.60
9542;DHT22;4809;48.224;8.572;2022-09-30T17:03:57;12.30;74.30
9542;DHT22;4809;48.224;8.572;2022-09-30T17:06:27;12.10;75.10
9542;DHT22;4809;48.224;8.572;2022-09-30T17:08:54;12.00;76.30
9542;DHT22;4809;48.224;8.572;2022-09-30T17:11:30;11.80;77.40
9542;DHT22;4809;48.224;8.572;2022-09-30T17:14:00;11.70;78.10
9542;DHT22;4809;48.224;8.572;2022-09-30T17:16:26;11.60;79.00
9542;DHT22;4809;48.224;8.572;2022-09-30T17:18:53;11.50;79.40
9542;DHT22;4809;48.224;8.572;2022-09-30T17:21:23;11.40;80.00
9542;DHT22;4809;48.224;8.572;2022-09-30T17:23:50;11.40;80.40
9542;DHT22;4809;48.224;8.572;2022-09-30T17:26:15;11.30;80.90
9542;DHT22;4809;48.224;8.572;2022-09-30T17:28:41;11.40;81.10
9542;DHT22;4809;48.224;8.572;2022-09-30T17:31:07;11.40;81.50
9542;DHT22;4809;48.224;8.572;2022-09-30T17:33:36;11.40;81.90
9542;DHT22;4809;48.224;8.572;2022-09-30T17:36:04;11.30;82.30
9542;DHT22;4809;48.224;8.572;2022-09-30T17:38:31;11.30;82.40
9542;DHT22;4809;48.224;8.572;2022-09-30T17:40:58;11.30;82.80
9542;DHT22;4809;48.224;8.572;2022-09-30T17:43:42;11.20;82.90
9542;DHT22;4809;48.224;8.572;2022-09-30T17:46:10;11.20;83.80
9542;DHT22;4809;48.224;8.572;2022-09-30T17:48:36;11.30;83.00
9542;DHT22;4809;48.224;8.572;2022-09-30T17:51:04;11.30;82.80
9542;DHT22;4809;48.224;8.572;2022-09-30T17:53:30;11.30;83.00
9542;DHT22;4809;48.224;8.572;2022-09-30T17:56:04;11.20;83.10
9542;DHT22;4809;48.224;8.572;2022-09-30T17:58:34;11.00;83.20
9542;DHT22;4809;48.224;8.572;2022-09-30T18:01:08;10.90;83.60
9542;DHT22;4809;48.224;8.572;2022-09-30T18:03:34;10.80;84.10
9542;DHT22;4809;48.224;8.572;2022-09-30T18:06:00;10.70;84.50
9542;DHT22;4809;48.224;8.572;2022-09-30T18:08:26;10.60;84.30
9542;DHT22;4809;48.224;8.572;2022-09-30T18:10:54;10.50;84.50
9542;DHT22;4809;48.224;8.572;2022-09-30T18:13:22;10.40;84.70
9542;DHT22;4809;48.224;8.572;2022-09-30T18:15:48;10.40;85.10
9542;DHT22;4809;48.224;8.572;2022-09-30T18:18:13;10.30;85.20
9542;DHT22;4809;48.224;8.572;2022-09-30T18:20:47;10.30;85.50
9542;DHT22;4809;48.224;8.572;2022-09-30T18:23:16;10.30;85.60
9542;DHT22;4809;48.224;8.572;2022-09-30T18:25:44;10.30;85.90
9542;DHT22;4809;48.224;8.572;2022-09-30T18:28:10;10.40;85.70
9542;DHT22;4809;48.224;8.572;2022-09-30T18:30:37;10.40;85.40
9542;DHT22;4809;48.224;8.572;2022-09-30T18:33:04;10.60;85.80
9542;DHT22;4809;48.224;8.572;2022-09-30T18:35:32;10.60;85.50
9542;DHT22;4809;48.224;8.572;2022-09-30T18:37:59;10.60;85.80
9542;DHT22;4809;48.224;8.572;2022-09-30T18:40:26;10.60;86.10
9542;DHT22;4809;48.224;8.572;2022-09-30T18:42:57;10.70;86.30
9542;DHT22;4809;48.224;8.572;2022-09-30T18:45:28;10.70;86.10
9542;DHT22;4809;48.224;8.572;2022-09-30T18:47:59;10.70;85.70
9542;DHT22;4809;48.224;8.572;2022-09-30T18:50:26;10.80;85.60
9542;DHT22;4809;48.224;8.572;2022-09-30T18:52:52;10.80;85.20
9542;DHT22;4809;48.224;8.572;2022-09-30T18:55:19;10.80;84.60
9542;DHT22;4809;48.224;8.572;2022-09-30T18:57:45;10.80;84.90
9542;DHT22;4809;48.224;8.572;2022-09-30T19:00:17;10.80;85.00
9542;DHT22;4809;48.224;8.572;2022-09-30T19:02:45;10.70;85.00
9542;DHT22;4809;48.224;8.572;2022-09-30T19:05:12;10.70;85.10
9542;DHT22;4809;48.224;8.572;2022-09-30T19:07:38;10.70;85.10
9542;DHT22;4809;48.224;8.572;2022-09-30T19:10:07;10.70;85.10
9542;DHT22;4809;48.224;8.572;2022-09-30T19:12:35;10.80;85.10
9542;DHT22;4809;48.224;8.572;2022-09-30T19:15:08;10.70;85.40
9542;DHT22;4809;48.224;8.572;2022-09-30T19:17:34;10.70;85.70
9542;DHT22;4809;48.224;8.572;2022-09-30T19:20:03;10.60;86.10
9542;DHT22;4809;48.224;8.572;2022-09-30T19:22:29;10.40;87.00
9542;DHT22;4809;48.224;8.572;2022-09-30T19:24:55;10.30;87.50
9542;DHT22;4809;48.224;8.572;2022-09-30T19:27:21;10.30;87.70
9542;DHT22;4809;48.224;8.572;2022-09-30T19:29:49;10.20;87.40
9542;DHT22;4809;48.224;8.572;2022-09-30T19:32:16;10.10;87.40
9542;DHT22;4809;48.224;8.572;2022-09-30T19:34:43;10.00;87.40
9542;DHT22;4809;48.224;8.572;2022-09-30T19:37:10;10.00;87.30
9542;DHT22;4809;48.224;8.572;2022-09-30T19:39:36;10.00;87.00
9542;DHT22;4809;48.224;8.572;2022-09-30T19:42:02;9.90;88.10
9542;DHT22;4809;48.224;8.572;2022-09-30T19:44:28;9.80;88.30
9542;DHT22;4809;48.224;8.572;2022-09-30T19:46:55;9.70;88.40
9542;DHT22;4809;48.224;8.572;2022-09-30T19:49:22;9.70;88.10